Time;durP1;ratioP1;P1;durP2;ratioP2;P2;SDS_P1;SDS_P2;PMS_P1;PMS_P2;Temp;Humidity;BMP_temperature;BMP_pressure;BME280_temperature;BME280_humidity;BME280_pressure;Samples;Min_cycle;Max_cycle;Signal;HPM_P1;HPM_P2
2021/03/21 00:02:25;;;;;;;28.63;16.90;;;;;;;5.37;82.11;100668.56;4989745;28;20498;-70
2021/03/21 00:04:51;;;;;;;21.63;14.13;;;;;;;5.26;81.63;100653.44;4973733;28;20569;-67
2021/03/21 00:07:16;;;;;;;17.52;12.85;;;;;;;5.26;83.11;100676.47;4995465;28;20169;-70
2021/03/21 00:09:42;;;;;;;18.00;13.93;;;;;;;5.14;83.49;100679.13;4993900;28;20026;-70
2021/03/21 00:12:08;;;;;;;18.27;12.82;;;;;;;5.09;83.59;100685.66;4971749;28;20388;-72
2021/03/21 00:14:33;;;;;;;18.05;13.25;;;;;;;4.89;83.19;100669.06;4972067;28;20042;-72
2021/03/21 00:16:59;;;;;;;18.70;13.82;;;;;;;4.93;83.41;100659.91;4972008;28;20039;-71
2021/03/21 00:19:25;;;;;;;19.15;13.48;;;;;;;4.93;84.20;100644.56;4961397;28;20453;-72
2021/03/21 00:21:51;;;;;;;17.00;13.15;;;;;;;5.04;83.55;100665.69;4972149;28;20043;-72
2021/03/21 00:24:16;;;;;;;16.52;12.65;;;;;;;4.94;84.83;100662.56;4972028;28;20052;-72
2021/03/21 00:26:42;;;;;;;19.20;13.48;;;;;;;4.76;85.11;100625.59;4971860;28;20487;-72
2021/03/21 00:29:07;;;;;;;25.35;15.55;;;;;;;5.00;84.53;100652.69;4971735;28;20066;-72
2021/03/21 00:31:33;;;;;;;25.10;15.18;;;;;;;5.07;85.13;100660.75;4971861;28;20120;-73
2021/03/21 00:33:59;;;;;;;24.60;16.10;;;;;;;4.95;85.02;100648.09;4971744;28;20041;-74
2021/03/21 00:36:25;;;;;;;21.52;15.05;;;;;;;4.87;85.07;100642.47;4971283;28;20047;-74
2021/03/21 00:38:52;;;;;;;24.00;15.38;;;;;;;5.04;85.31;100655.47;4971711;28;20542;-73
2021/03/21 00:41:21;;;;;;;25.77;15.68;;;;;;;4.97;85.84;100637.16;4971215;28;20050;-76
2021/03/21 00:43:46;;;;;;;22.95;15.77;;;;;;;4.70;85.79;100583.50;4984716;28;20043;-76
2021/03/21 00:46:13;;;;;;;27.80;15.05;;;;;;;4.92;85.29;100624.88;4973533;28;20105;-77
2021/03/21 00:48:42;;;;;;;37.45;18.63;;;;;;;4.65;86.31;100590.00;4990828;28;20062;-76
2021/03/21 00:51:10;;;;;;;24.53;15.37;;;;;;;4.58;86.16;100602.31;4975380;28;20109;-76
2021/03/21 00:53:36;;;;;;;27.35;15.48;;;;;;;4.67;87.34;100610.53;4976677;28;20265;-76
2021/03/21 00:56:02;;;;;;;32.55;16.58;;;;;;;4.47;88.32;100591.41;4974363;28;20089;-77
2021/03/21 00:58:27;;;;;;;24.70;15.57;;;;;;;4.59;88.33;100604.09;4974770;28;20442;-76
2021/03/21 01:00:56;;;;;;;32.53;19.13;;;;;;;4.61;88.96;100590.59;4973545;28;20062;-76
2021/03/21 01:03:23;;;;;;;22.92;14.52;;;;;;;4.35;88.06;100566.81;4974894;28;20030;-75
2021/03/21 01:05:50;;;;;;;20.25;14.57;;;;;;;4.68;88.11;100617.44;4974281;28;20042;-75
2021/03/21 01:08:18;;;;;;;16.38;11.75;;;;;;;4.68;86.01;100623.41;4973305;28;20045;-78
2021/03/21 01:10:45;;;;;;;15.98;11.68;;;;;;;4.57;86.00;100611.63;4991004;28;20145;-76
2021/03/21 01:13:10;;;;;;;19.35;13.02;;;;;;;4.49;86.21;100606.03;4992592;28;20101;-76
2021/03/21 01:15:35;;;;;;;21.45;14.57;;;;;;;4.56;86.73;100599.66;5007134;28;20121;-76
2021/03/21 01:18:01;;;;;;;19.27;13.98;;;;;;;4.64;86.00;100618.91;4992668;28;20022;-75
2021/03/21 01:20:28;;;;;;;17.83;11.65;;;;;;;4.52;85.50;100605.34;4992815;28;20464;-76
2021/03/21 01:22:54;;;;;;;17.77;11.25;;;;;;;4.69;85.28;100622.63;4992800;28;20040;-73
2021/03/21 01:25:22;;;;;;;16.67;11.27;;;;;;;4.69;84.64;100619.22;4991482;28;20031;-75
2021/03/21 01:27:47;;;;;;;20.00;12.85;;;;;;;4.60;84.27;100596.50;4992325;28;20053;-75
2021/03/21 01:30:14;;;;;;;22.23;13.38;;;;;;;4.56;84.69;100596.19;4992150;28;20060;-74
2021/03/21 01:32:40;;;;;;;23.88;12.77;;;;;;;4.63;84.91;100600.91;4992417;28;20117;-77
2021/03/21 01:35:06;;;;;;;24.35;14.18;;;;;;;4.53;85.62;100567.09;4991977;28;20482;-74
2021/03/21 01:37:32;;;;;;;25.27;15.25;;;;;;;4.62;85.31;100573.56;4992324;28;20022;-75
2021/03/21 01:39:58;;;;;;;33.95;14.05;;;;;;;4.67;84.58;100583.31;4991939;28;20048;-74
2021/03/21 01:42:24;;;;;;;24.60;13.27;;;;;;;4.72;84.99;100592.94;4992181;28;20054;-73
2021/03/21 01:44:53;;;;;;;23.77;13.55;;;;;;;4.75;84.23;100601.69;4991899;28;20026;-73
2021/03/21 01:47:33;;;;;;;22.10;12.48;;;;;;;4.75;83.34;100603.34;4992483;28;20077;-74
2021/03/21 01:50:04;;;;;;;24.42;12.65;;;;;;;4.41;83.79;100535.66;4992304;28;20030;-74
2021/03/21 01:52:37;;;;;;;24.08;14.50;;;;;;;4.63;83.95;100573.66;4992253;28;20026;-75
2021/03/21 01:55:07;;;;;;;32.63;17.75;;;;;;;4.68;85.21;100594.41;4991915;28;20026;-75
2021/03/21 01:57:33;;;;;;;23.92;16.50;;;;;;;4.66;85.43;100591.78;4991223;28;20018;-77
2021/03/21 01:59:58;;;;;;;20.23;13.75;;;;;;;4.50;86.43;100595.03;4991944;28;20042;-75
2021/03/21 02:02:24;;;;;;;18.77;14.25;;;;;;;4.29;87.32;100597.09;4991995;28;20387;-77
2021/03/21 02:04:49;;;;;;;21.73;14.90;;;;;;;4.16;88.52;100609.88;4991782;28;20049;-76
2021/03/21 02:07:33;;;;;;;21.85;15.52;;;;;;;4.20;89.55;100634.84;4991717;28;20076;-77
2021/03/21 02:10:01;;;;;;;22.98;16.23;;;;;;;4.12;90.12;100626.66;5006014;28;20053;-76
2021/03/21 02:12:45;;;;;;;26.75;17.85;;;;;;;4.00;90.87;100629.31;4992167;28;20482;-76
2021/03/21 02:15:50;;;;;;;25.65;17.33;;;;;;;3.70;90.74;100567.78;4991997;28;20027;-77
2021/03/21 02:18:22;;;;;;;24.40;17.27;;;;;;;3.88;91.94;100606.38;4997646;28;20548;-75
2021/03/21 02:21:10;;;;;;;24.38;16.77;;;;;;;3.83;91.80;100606.88;4991695;28;20109;-74
2021/03/21 02:23:57;;;;;;;24.65;15.93;;;;;;;3.78;92.14;100609.13;4992214;28;20096;-73
2021/03/21 02:26:41;;;;;;;21.92;15.77;;;;;;;3.78;91.70;100603.16;4979368;28;20389;-75
2021/03/21 02:29:16;;;;;;;21.02;14.95;;;;;;;3.77;91.95;100606.47;4991833;28;20041;-74
2021/03/21 02:31:45;;;;;;;21.35;15.52;;;;;;;3.53;91.60;100553.88;4991750;28;20070;-74
2021/03/21 02:34:18;;;;;;;21.27;15.57;;;;;;;3.72;92.03;100584.06;4991624;28;20031;-74
2021/03/21 02:36:59;;;;;;;23.67;15.65;;;;;;;3.72;91.62;100616.38;4991157;28;20470;-74
2021/03/21 02:40:06;;;;;;;18.35;13.48;;;;;;;3.67;92.14;100618.63;4991667;28;20041;-74
2021/03/21 02:42:41;;;;;;;18.67;13.23;;;;;;;3.53;92.53;100596.41;4912206;29;20147;-74
2021/03/21 02:45:21;;;;;;;19.33;14.40;;;;;;;3.56;92.76;100620.47;4912093;29;20067;-74
2021/03/21 02:47:49;;;;;;;24.85;15.20;;;;;;;3.48;93.01;100620.75;4912810;29;20042;-74
2021/03/21 02:50:29;;;;;;;20.73;15.48;;;;;;;3.41;93.45;100606.66;4912607;29;20103;-74
2021/03/21 02:53:00;;;;;;;;;;;;;;;3.59;93.27;100616.34;4913210;29;20119;-74
2021/03/21 02:55:34;;;;;;;21.65;14.60;;;;;;;3.69;93.80;100622.16;4912743;29;20003;-74
2021/03/21 02:58:06;;;;;;;32.33;18.50;;;;;;;3.77;93.53;100621.81;4912597;29;20107;-74
2021/03/21 03:00:39;;;;;;;54.60;30.33;;;;;;;3.86;92.68;100607.97;4912348;29;20584;-74
2021/03/21 03:03:08;;;;;;;34.50;17.60;;;;;;;3.71;91.50;100602.75;4912398;29;20036;-74
2021/03/21 03:05:41;;;;;;;31.35;15.77;;;;;;;3.90;90.85;100632.06;4912060;29;20040;-74
2021/03/21 03:08:09;;;;;;;28.08;13.70;;;;;;;3.93;89.16;100629.69;4912252;29;20111;-74
2021/03/21 03:10:44;;;;;;;26.60;12.70;;;;;;;3.91;89.10;100641.47;4912478;29;20107;-73
2021/03/21 03:13:20;;;;;;;37.03;15.07;;;;;;;3.69;88.55;100606.84;4900147;29;20470;-74
2021/03/21 03:15:46;;;;;;;32.58;13.15;;;;;;;3.90;88.49;100634.63;4915630;29;20641;-75
2021/03/21 03:18:31;;;;;;;26.75;13.85;;;;;;;3.88;88.94;100626.81;4932357;28;20092;-74
2021/03/21 03:21:20;;;;;;;21.30;10.82;;;;;;;3.90;88.60;100634.63;4993597;28;20057;-74
2021/03/21 03:24:16;;;;;;;24.75;13.82;;;;;;;3.89;89.21;100620.94;4994966;28;20485;-75
2021/03/21 03:27:03;;;;;;;40.97;16.42;;;;;;;3.92;89.35;100616.81;4953546;29;20039;-74
2021/03/21 03:29:41;;;;;;;40.03;17.70;;;;;;;4.00;89.42;100624.22;4953634;29;20039;-75
2021/03/21 03:32:13;;;;;;;48.20;19.27;;;;;;;4.04;89.86;100608.28;4953894;28;20047;-74
2021/03/21 03:34:44;;;;;;;43.83;17.88;;;;;;;4.01;88.61;100610.66;4953394;28;20514;-76
2021/03/21 03:37:09;;;;;;;43.92;16.45;;;;;;;3.87;89.05;100588.41;4953020;28;20094;-75
2021/03/21 03:39:38;;;;;;;33.90;13.80;;;;;;;4.03;88.20;100603.09;4953271;28;20031;-76
2021/03/21 03:42:03;;;;;;;24.40;12.63;;;;;;;3.95;88.35;100612.81;4952972;28;20059;-76
2021/03/21 03:44:45;;;;;;;36.25;15.70;;;;;;;3.88;88.75;100613.19;4953387;28;20138;-76
2021/03/21 03:47:18;;;;;;;30.88;14.00;;;;;;;3.75;88.39;100606.38;4953208;28;20027;-76
2021/03/21 03:49:58;;;;;;;48.93;19.93;;;;;;;3.62;88.93;100585.94;4953100;28;20066;-76
2021/03/21 03:52:47;;;;;;;36.08;16.55;;;;;;;3.85;90.09;100626.63;4953347;28;20027;-76
2021/03/21 03:55:30;;;;;;;37.20;15.90;;;;;;;3.91;89.46;100625.28;4953008;29;20523;-76
2021/03/21 03:58:20;;;;;;;34.03;15.52;;;;;;;3.84;89.89;100634.22;4953114;28;20035;-76
2021/03/21 04:00:57;;;;;;;42.35;16.67;;;;;;;3.86;89.66;100627.50;4953096;29;20042;-76
2021/03/21 04:03:57;;;;;;;29.98;14.63;;;;;;;3.88;89.42;100616.59;4962908;28;20062;-76
2021/03/21 04:06:40;;;;;;;35.17;16.98;;;;;;;3.88;89.71;100633.63;4914473;29;20036;-77
2021/03/21 04:09:23;;;;;;;32.65;15.07;;;;;;;3.85;89.43;100621.53;4899155;29;20047;-76
2021/03/21 04:12:02;;;;;;;35.40;15.60;;;;;;;3.83;89.29;100622.22;4914988;29;20051;-77
2021/03/21 04:14:39;;;;;;;47.53;19.30;;;;;;;3.76;89.76;100609.81;4915051;29;20035;-76
2021/03/21 04:17:30;;;;;;;30.35;16.50;;;;;;;3.84;89.31;100621.44;4914485;29;20076;-76
2021/03/21 04:20:11;;;;;;;41.40;19.63;;;;;;;3.69;89.28;100596.63;4914723;29;20063;-77
2021/03/21 04:22:50;;;;;;;38.72;18.70;;;;;;;3.60;89.23;100585.81;4895678;29;20136;-77
2021/03/21 04:25:25;;;;;;;30.38;14.82;;;;;;;3.62;89.15;100586.78;4895658;29;20501;-77
2021/03/21 04:28:00;;;;;;;42.65;19.58;;;;;;;3.78;89.98;100603.16;4895556;29;20037;-77
2021/03/21 04:30:31;;;;;;;39.25;18.88;;;;;;;3.83;89.59;100619.66;4895645;29;20047;-77
2021/03/21 04:32:59;;;;;;;40.67;19.58;;;;;;;3.57;90.09;100588.16;4895617;29;20033;-77
2021/03/21 04:35:33;;;;;;;50.00;19.58;;;;;;;3.67;89.74;100627.97;4895478;29;20032;-77
2021/03/21 04:38:08;;;;;;;21.92;13.82;;;;;;;3.53;89.37;100616.81;4895626;29;20043;-76
2021/03/21 04:40:34;;;;;;;36.70;17.17;;;;;;;3.47;89.91;100607.06;4895061;29;20045;-76
2021/03/21 04:43:10;;;;;;;39.43;19.07;;;;;;;3.63;90.10;100643.88;4966773;28;20186;-77
2021/03/21 04:45:45;;;;;;;35.08;16.30;;;;;;;3.34;89.33;100619.78;4972163;28;20113;-76
2021/03/21 04:48:15;;;;;;;30.40;15.13;;;;;;;3.57;89.04;100657.09;4971357;28;20474;-77
2021/03/21 04:50:41;;;;;;;43.43;20.63;;;;;;;3.50;89.84;100660.00;4971618;28;20062;-76
2021/03/21 04:53:18;;;;;;;29.73;14.23;;;;;;;3.54;90.06;100679.88;4971689;28;20085;-76
2021/03/21 04:55:59;;;;;;;43.43;17.37;;;;;;;3.37;89.84;100648.06;4959024;28;20033;-77
2021/03/21 04:58:35;;;;;;;30.23;14.93;;;;;;;3.56;89.09;100666.44;4971197;28;20035;-76
2021/03/21 05:01:14;;;;;;;22.20;13.00;;;;;;;3.51;89.80;100669.44;4990961;28;20133;-77
2021/03/21 05:03:44;;;;;;;23.67;13.23;;;;;;;3.51;89.22;100664.31;5007938;28;20069;-76
2021/03/21 05:06:42;;;;;;;25.85;13.45;;;;;;;3.41;90.46;100627.06;4992794;28;20033;-77
2021/03/21 05:09:17;;;;;;;39.50;15.60;;;;;;;3.65;90.35;100653.41;4913467;29;20096;-78
2021/03/21 05:11:52;;;;;;;28.30;13.63;;;;;;;3.66;90.32;100647.47;4913991;29;20040;-77
2021/03/21 05:14:29;;;;;;;22.73;12.55;;;;;;;3.73;90.66;100644.56;4913451;29;20075;-77
2021/03/21 05:17:19;;;;;;;30.10;15.10;;;;;;;3.61;90.41;100637.75;4898063;29;20132;-77
2021/03/21 05:19:53;;;;;;;15.48;10.63;;;;;;;3.55;90.31;100657.00;4913795;29;20044;-77
2021/03/21 05:22:41;;;;;;;25.23;13.00;;;;;;;3.54;91.20;100649.22;4913528;29;20059;-77
2021/03/21 05:25:18;;;;;;;29.70;15.53;;;;;;;3.24;90.82;100620.84;4914099;29;20040;-77
2021/03/21 05:27:47;;;;;;;30.70;15.33;;;;;;;3.47;91.25;100640.25;4913079;29;20060;-77
2021/03/21 05:30:16;;;;;;;48.90;26.23;;;;;;;3.51;91.00;100649.88;4914040;29;20084;-77
2021/03/21 05:32:42;;;;;;;37.77;16.57;;;;;;;3.49;90.77;100651.47;4913503;29;20527;-77
2021/03/21 05:35:15;;;;;;;19.02;11.45;;;;;;;3.44;90.70;100637.50;4912529;29;20154;-77
2021/03/21 05:38:02;;;;;;;22.15;13.18;;;;;;;3.49;91.08;100637.78;4913240;29;20492;-77
2021/03/21 05:41:04;;;;;;;25.92;14.63;;;;;;;3.51;90.84;100641.34;4897150;29;20036;-77
2021/03/21 05:44:11;;;;;;;36.70;19.77;;;;;;;3.46;90.96;100655.47;4897098;29;20048;-77
2021/03/21 05:46:55;;;;;;;29.53;14.97;;;;;;;3.33;91.35;100649.53;4918020;29;20044;-77
2021/03/21 05:49:20;;;;;;;29.17;14.43;;;;;;;3.47;91.48;100645.34;4932375;29;20059;-77
2021/03/21 05:52:21;;;;;;;28.27;18.25;;;;;;;3.33;91.13;100623.13;4932179;29;20051;-77
2021/03/21 05:55:19;;;;;;;55.57;37.17;;;;;;;3.42;91.15;100658.59;4932190;29;20538;-77
2021/03/21 05:58:13;;;;;;;23.37;19.10;;;;;;;3.38;91.54;100650.72;4865818;29;20542;-76
2021/03/21 06:00:57;;;;;;;13.40;9.80;;;;;;;3.38;91.60;100660.06;4801960;29;20126;-76
2021/03/21 06:03:25;;;;;;;16.17;10.20;;;;;;;3.30;91.35;100672.28;4802091;29;20434;-76
2021/03/21 06:06:21;;;;;;;18.93;9.53;;;;;;;3.34;91.63;100679.38;4800606;29;20086;-78
2021/03/21 06:09:05;;;;;;;18.30;10.17;;;;;;;3.29;91.80;100675.63;4806247;29;20142;-78
2021/03/21 06:11:51;;;;;;;20.57;9.57;;;;;;;3.03;92.46;100623.66;4801802;29;20129;-78
2021/03/21 06:14:28;;;;;;;20.83;10.90;;;;;;;3.35;91.94;100672.59;4801479;29;20049;-76
2021/03/21 06:17:21;;;;;;;17.20;10.90;;;;;;;3.47;92.40;100663.22;4798424;29;20066;-75
2021/03/21 06:20:28;;;;;;;24.83;11.75;;;;;;;3.49;91.82;100661.69;4798043;29;20036;-76
2021/03/21 06:23:14;;;;;;;24.90;11.97;;;;;;;3.53;91.48;100653.44;4764788;30;20141;-76
2021/03/21 06:25:55;;;;;;;19.50;11.00;;;;;;;3.55;91.65;100654.44;4783059;29;20532;-77
2021/03/21 06:28:36;;;;;;;21.67;11.77;;;;;;;3.63;91.34;100660.06;4783180;30;20047;-76
2021/03/21 06:31:10;;;;;;;27.50;13.52;;;;;;;3.56;91.26;100647.66;4783622;30;20055;-77
2021/03/21 06:34:01;;;;;;;35.80;15.03;;;;;;;3.61;91.42;100653.94;4769271;29;20044;-77
2021/03/21 06:36:44;;;;;;;34.97;12.63;;;;;;;3.69;91.43;100654.50;4836086;29;20043;-76
2021/03/21 06:39:49;;;;;;;33.75;14.40;;;;;;;3.81;91.10;100660.41;4931380;29;20111;-77
2021/03/21 06:42:42;;;;;;;25.85;12.07;;;;;;;3.80;90.30;100656.09;4930883;29;20055;-77
2021/03/21 06:45:38;;;;;;;30.27;11.30;;;;;;;3.80;90.46;100652.63;4932410;29;20105;-77
2021/03/21 06:48:34;;;;;;;21.67;10.73;;;;;;;3.88;91.09;100664.25;4935183;29;20119;-77
2021/03/21 06:51:18;;;;;;;28.33;11.45;;;;;;;3.96;91.20;100670.78;4934838;29;20035;-77
2021/03/21 06:54:17;;;;;;;14.95;9.32;;;;;;;3.56;90.62;100643.44;4934670;29;20035;-77
2021/03/21 06:57:20;;;;;;;17.65;8.88;;;;;;;3.73;90.48;100685.41;4934762;29;20416;-77
2021/03/21 07:00:06;;;;;;;15.07;7.47;;;;;;;3.71;89.56;100675.88;4934673;28;20038;-77
2021/03/21 07:03:11;;;;;;;18.38;10.40;;;;;;;3.67;89.92;100671.38;4979774;28;20034;-77
2021/03/21 07:06:01;;;;;;;17.80;9.00;;;;;;;3.72;90.15;100685.31;4992046;28;20034;-78
2021/03/21 07:08:45;;;;;;;19.85;8.90;;;;;;;3.77;90.19;100695.84;4959803;28;20245;-77
2021/03/21 07:11:31;;;;;;;25.13;9.95;;;;;;;3.81;91.17;100698.69;4992868;28;20030;-77
2021/03/21 07:14:21;;;;;;;20.88;10.70;;;;;;;3.84;90.53;100686.16;4992254;28;20188;-77
2021/03/21 07:17:11;;;;;;;30.20;11.60;;;;;;;3.79;89.80;100673.84;4992265;28;20141;-76
2021/03/21 07:19:37;;;;;;;26.60;14.70;;;;;;;3.87;91.02;100667.59;4993889;28;20126;-76
2021/03/21 07:22:17;;;;;;;87.05;51.75;;;;;;;3.82;91.35;100672.38;5009216;28;20042;-77
2021/03/21 07:24:55;;;;;;;62.97;31.67;;;;;;;3.92;90.96;100661.13;4981790;28;20034;-76
2021/03/21 07:27:37;;;;;;;207.75;103.93;;;;;;;4.01;90.43;100655.75;4992725;28;20556;-77
2021/03/21 07:30:35;;;;;;;104.65;52.90;;;;;;;4.00;90.24;100641.19;4993650;28;20019;-77
2021/03/21 07:33:25;;;;;;;19.02;11.20;;;;;;;3.94;89.96;100625.47;4993030;28;20034;-77
2021/03/21 07:36:02;;;;;;;26.27;22.67;;;;;;;4.12;89.95;100648.78;4993912;28;20105;-76
2021/03/21 07:38:28;;;;;;;14.45;8.68;;;;;;;4.06;89.23;100639.03;4993874;28;20026;-77
2021/03/21 07:41:28;;;;;;;28.73;20.20;;;;;;;4.11;89.82;100631.69;4993427;28;20032;-77
2021/03/21 07:44:08;;;;;;;20.33;11.10;;;;;;;3.96;90.14;100617.13;4970218;28;20481;-78
2021/03/21 07:46:42;;;;;;;;;;;;;;;4.09;89.83;100653.69;4972593;28;20049;-76
2021/03/21 07:49:22;;;;;;;14.68;10.68;;;;;;;4.02;89.06;100655.84;4972026;28;20404;-77
2021/03/21 07:52:00;;;;;;;39.75;32.85;;;;;;;3.84;90.46;100603.56;4972258;28;20031;-77
2021/03/21 07:54:49;;;;;;;27.48;18.98;;;;;;;4.23;91.38;100659.72;4962951;28;20030;-77
2021/03/21 07:57:31;;;;;;;16.02;9.70;;;;;;;3.84;89.45;100621.44;4971389;28;20031;-77
2021/03/21 07:59:57;;;;;;;53.28;45.50;;;;;;;4.16;91.31;100669.53;4971844;28;20038;-77
2021/03/21 08:02:26;;;;;;;24.85;13.95;;;;;;;3.85;91.30;100618.97;4971698;28;20029;-77
2021/03/21 08:04:58;;;;;;;24.20;11.68;;;;;;;4.07;91.41;100660.38;4971534;28;20039;-77
2021/03/21 08:07:32;;;;;;;22.20;9.48;;;;;;;4.09;90.50;100667.34;4971810;28;20070;-77
2021/03/21 08:09:59;;;;;;;22.85;9.82;;;;;;;4.07;90.59;100655.28;4971975;28;20532;-78
2021/03/21 08:12:35;;;;;;;18.25;12.18;;;;;;;4.19;91.31;100654.41;4971892;28;20038;-77
2021/03/21 08:15:08;;;;;;;17.02;11.95;;;;;;;4.29;90.94;100660.13;4978100;28;20069;-77
2021/03/21 08:17:42;;;;;;;19.75;14.07;;;;;;;4.15;91.08;100657.53;4992270;28;20101;-78
2021/03/21 08:20:17;;;;;;;19.92;12.57;;;;;;;4.33;91.81;100662.97;4993282;28;20058;-76
2021/03/21 08:22:43;;;;;;;28.05;16.25;;;;;;;4.30;91.31;100657.66;4990933;28;20050;-77
2021/03/21 08:25:20;;;;;;;14.80;9.43;;;;;;;4.43;90.96;100656.78;4992976;28;20054;-78
2021/03/21 08:27:46;;;;;;;11.93;7.93;;;;;;;4.23;89.53;100642.72;4992719;28;20113;-77
2021/03/21 08:30:14;;;;;;;19.05;8.70;;;;;;;4.10;89.73;100641.03;4992573;28;20422;-77
2021/03/21 08:33:03;;;;;;;16.98;9.25;;;;;;;4.18;89.70;100659.41;4993303;28;20030;-77
2021/03/21 08:35:31;;;;;;;21.92;9.55;;;;;;;4.04;90.32;100643.19;4981687;28;20470;-76
2021/03/21 08:38:01;;;;;;;48.40;20.23;;;;;;;4.24;90.26;100657.25;4992841;28;20425;-77
2021/03/21 08:40:39;;;;;;;64.85;25.98;;;;;;;4.43;90.52;100656.78;4993332;28;20030;-77
2021/03/21 08:43:25;;;;;;;30.08;18.92;;;;;;;4.49;90.55;100628.19;4992371;28;20525;-76
2021/03/21 08:45:56;;;;;;;18.20;11.40;;;;;;;4.62;90.86;100640.97;4993271;28;20026;-77
2021/03/21 08:48:32;;;;;;;17.50;10.82;;;;;;;4.45;89.86;100623.63;4993477;28;20062;-76
2021/03/21 08:51:04;;;;;;;24.65;10.57;;;;;;;4.73;89.50;100635.63;4992988;28;20035;-77
2021/03/21 08:53:43;;;;;;;23.05;10.02;;;;;;;4.70;88.92;100634.63;4993154;28;20034;-77
2021/03/21 08:56:17;;;;;;;16.10;8.80;;;;;;;4.63;88.43;100631.59;4983924;28;20125;-77
2021/03/21 08:58:44;;;;;;;29.83;14.10;;;;;;;4.67;89.14;100615.66;4992649;28;20041;-76
2021/03/21 09:01:18;;;;;;;22.08;11.65;;;;;;;4.64;88.40;100606.13;4992340;28;20117;-78
2021/03/21 09:03:44;;;;;;;20.17;12.95;;;;;;;4.69;88.73;100622.63;4991542;28;20022;-78
2021/03/21 09:06:34;;;;;;;30.20;15.52;;;;;;;4.67;88.72;100615.66;4992197;28;20022;-78
2021/03/21 09:09:18;;;;;;;21.20;10.35;;;;;;;4.66;88.68;100619.91;4991295;28;20034;-78
2021/03/21 09:11:46;;;;;;;23.13;9.20;;;;;;;4.68;88.39;100620.84;4992818;28;20030;-77
2021/03/21 09:14:19;;;;;;;14.32;9.38;;;;;;;4.61;88.28;100623.84;4992163;28;20470;-77
2021/03/21 09:16:51;;;;;;;19.05;8.70;;;;;;;4.25;88.49;100573.81;4991766;28;20536;-75
2021/03/21 09:19:21;;;;;;;15.93;7.05;;;;;;;4.46;88.42;100617.75;4992094;28;20026;-77
2021/03/21 09:21:47;;;;;;;13.25;7.00;;;;;;;4.46;89.27;100598.19;4991480;28;20672;-76
2021/03/21 09:24:28;;;;;;;23.30;16.10;;;;;;;4.36;89.47;100601.81;4992360;28;20026;-75
2021/03/21 09:27:13;;;;;;;17.33;10.57;;;;;;;4.63;90.71;100596.69;4983888;28;20061;-77
2021/03/21 09:29:43;;;;;;;13.15;8.85;;;;;;;4.67;88.66;100587.53;4992227;28;20057;-75
2021/03/21 09:32:28;;;;;;;28.67;22.30;;;;;;;4.46;88.66;100597.28;4992804;28;20037;-75
2021/03/21 09:35:38;;;;;;;22.13;10.63;;;;;;;4.60;89.22;100588.84;4991921;28;20042;-76
2021/03/21 09:38:12;;;;;;;17.67;8.20;;;;;;;4.60;88.43;100591.38;4992394;28;20022;-76
2021/03/21 09:40:39;;;;;;;21.42;9.23;;;;;;;4.41;89.15;100553.56;4990925;28;20038;-76
2021/03/21 09:43:12;;;;;;;18.50;9.68;;;;;;;4.43;89.27;100541.75;4991232;28;20129;-76
2021/03/21 09:45:41;;;;;;;25.73;15.73;;;;;;;4.74;89.51;100569.22;4991965;28;20473;-77
2021/03/21 09:48:23;;;;;;;31.80;16.83;;;;;;;4.84;89.07;100573.25;4991372;28;20489;-76
2021/03/21 09:50:57;;;;;;;17.95;11.40;;;;;;;4.93;88.71;100571.22;4991723;28;20026;-77
2021/03/21 09:53:48;;;;;;;16.25;14.50;;;;;;;4.60;88.94;100530.03;4991906;28;20061;-76
2021/03/21 09:56:45;;;;;;;32.33;28.35;;;;;;;4.83;89.12;100553.56;4997321;28;20054;-76
2021/03/21 09:59:49;;;;;;;11.75;8.15;;;;;;;4.56;88.54;100540.84;4990170;28;20030;-75
2021/03/21 10:02:50;;;;;;;11.13;7.95;;;;;;;4.43;90.14;100517.88;4969410;28;20042;-76
2021/03/21 10:05:32;;;;;;;11.13;7.70;;;;;;;4.12;90.06;100493.81;4897479;29;20068;-76
2021/03/21 10:08:39;;;;;;;12.00;8.35;;;;;;;4.32;89.11;100517.19;4905613;29;20047;-77
2021/03/21 10:11:08;;;;;;;9.07;6.40;;;;;;;4.41;88.99;100515.22;4915500;29;20040;-77
2021/03/21 10:13:40;;;;;;;9.88;6.65;;;;;;;4.24;88.93;100492.81;4915409;29;20127;-77
2021/03/21 10:16:14;;;;;;;17.70;11.57;;;;;;;4.31;87.94;100523.06;4915388;29;20036;-75
2021/03/21 10:18:47;;;;;;;52.50;33.72;;;;;;;4.28;88.79;100522.91;4898564;29;20032;-76
2021/03/21 10:21:22;;;;;;;13.85;9.00;;;;;;;4.32;88.90;100535.94;4914737;29;20028;-77
2021/03/21 10:23:47;;;;;;;12.57;8.35;;;;;;;4.45;89.18;100523.94;4915196;29;20737;-77
2021/03/21 10:26:14;;;;;;;18.73;11.70;;;;;;;4.48;89.73;100536.94;4918219;29;20048;-76
2021/03/21 10:28:49;;;;;;;25.75;22.75;;;;;;;4.46;88.58;100538.50;4915278;29;20111;-77
2021/03/21 10:31:23;;;;;;;28.10;25.27;;;;;;;4.47;88.20;100545.38;4912243;29;20036;-77
2021/03/21 10:33:55;;;;;;;12.20;9.70;;;;;;;4.47;88.60;100538.56;4912535;29;20538;-76
2021/03/21 10:36:50;;;;;;;12.10;7.85;;;;;;;4.67;89.38;100556.84;4912014;29;20526;-77
2021/03/21 10:39:24;;;;;;;45.90;41.45;;;;;;;4.77;89.14;100551.53;4830570;29;20034;-77
2021/03/21 10:41:59;;;;;;;28.40;25.83;;;;;;;4.71;88.93;100553.72;4888336;29;20052;-76
2021/03/21 10:44:30;;;;;;;13.45;11.05;;;;;;;4.71;88.89;100535.81;4892836;29;20049;-76
2021/03/21 10:47:17;;;;;;;10.27;6.82;;;;;;;4.46;87.96;100516.38;4892771;29;20485;-75
2021/03/21 10:49:50;;;;;;;9.55;7.82;;;;;;;4.55;88.33;100531.41;4836684;29;20140;-75
2021/03/21 10:52:34;;;;;;;10.13;8.20;;;;;;;4.50;88.71;100526.00;4836936;29;20090;-76
2021/03/21 10:55:12;;;;;;;9.40;7.47;;;;;;;4.60;89.52;100521.44;4836421;29;20541;-76
2021/03/21 10:58:06;;;;;;;28.13;21.77;;;;;;;4.63;88.57;100532.75;4832547;29;20098;-76
2021/03/21 11:00:32;;;;;;;10.50;8.23;;;;;;;4.40;88.42;100498.09;4779730;30;20071;-75
2021/03/21 11:02:59;;;;;;;11.60;9.10;;;;;;;4.62;89.17;100519.88;4781310;30;20543;-75
2021/03/21 11:05:27;;;;;;;13.40;9.90;;;;;;;4.60;89.26;100524.91;4782331;30;20048;-75
2021/03/21 11:08:05;;;;;;;10.95;9.07;;;;;;;4.57;90.00;100519.59;4782580;30;20043;-77
2021/03/21 11:10:37;;;;;;;12.65;10.77;;;;;;;4.71;89.83;100525.56;4782725;30;20043;-76
2021/03/21 11:13:03;;;;;;;11.30;8.30;;;;;;;4.56;88.98;100486.25;4782554;30;20055;-76
2021/03/21 11:15:37;;;;;;;11.18;7.78;;;;;;;4.62;89.24;100497.75;4822332;29;20119;-76
2021/03/21 11:18:17;;;;;;;8.63;7.00;;;;;;;4.44;88.81;100481.28;4893256;29;20048;-75
2021/03/21 11:20:43;;;;;;;9.65;6.47;;;;;;;4.45;88.20;100493.25;4893177;29;20072;-75
2021/03/21 11:23:20;;;;;;;8.07;6.15;;;;;;;4.31;88.80;100475.41;4893146;29;20120;-75
2021/03/21 11:25:47;;;;;;;7.35;5.50;;;;;;;4.11;88.90;100460.50;4895316;29;20044;-75
2021/03/21 11:28:36;;;;;;;8.73;6.70;;;;;;;4.16;90.03;100459.13;4930736;29;20036;-75
2021/03/21 11:31:06;;;;;;;14.02;9.07;;;;;;;4.26;90.39;100458.03;4930917;29;20086;-75
2021/03/21 11:33:42;;;;;;;18.15;13.02;;;;;;;4.59;91.19;100466.88;4920835;29;20499;-76
2021/03/21 11:36:20;;;;;;;34.60;23.63;;;;;;;4.68;90.09;100472.53;4934124;29;20036;-76
2021/03/21 11:38:46;;;;;;;24.30;18.90;;;;;;;4.68;90.02;100469.09;4981538;28;20030;-77
2021/03/21 11:41:30;;;;;;;12.73;10.45;;;;;;;4.64;89.18;100454.38;4994292;28;20037;-75
2021/03/21 11:44:18;;;;;;;9.65;8.45;;;;;;;4.60;89.95;100445.63;4982861;28;20050;-74
2021/03/21 11:46:45;;;;;;;11.43;8.70;;;;;;;4.65;89.56;100446.78;4991262;28;21487;-76
2021/03/21 11:49:11;;;;;;;9.30;7.65;;;;;;;4.68;89.67;100429.06;4994013;28;20034;-75
2021/03/21 11:51:39;;;;;;;10.77;7.93;;;;;;;4.68;89.28;100423.94;4993658;28;20490;-75
2021/03/21 11:54:06;;;;;;;10.57;8.40;;;;;;;4.66;88.72;100416.97;4991428;28;20065;-79
2021/03/21 11:57:01;;;;;;;10.80;8.45;;;;;;;4.69;88.98;100428.28;4993861;28;20030;-76
2021/03/21 11:59:44;;;;;;;11.70;7.72;;;;;;;4.61;89.48;100439.75;4991431;28;20030;-75
2021/03/21 12:02:38;;;;;;;9.80;8.23;;;;;;;4.80;89.95;100436.59;4993411;28;20088;-75
2021/03/21 12:05:11;;;;;;;12.32;8.73;;;;;;;4.69;89.14;100415.50;4992858;28;20482;-75